sensor_id;sensor_type;location;lat;lon;timestamp;temperature;humidity
54168;DHT22;40072;50.958;3.592;2022-09-09T00:00:38;14.60;99.90
54168;DHT22;40072;50.958;3.592;2022-09-09T00:03:23;14.60;99.90
54168;DHT22;40072;50.958;3.592;2022-09-09T00:06:06;14.60;99.90
54168;DHT22;40072;50.958;3.592;2022-09-09T00:08:45;14.70;99.90
54168;DHT22;40072;50.958;3.592;2022-09-09T00:11:20;14.70;99.90
54168;DHT22;40072;50.958;3.592;2022-09-09T00:13:52;14.60;99.90
54168;DHT22;40072;50.958;3.592;2022-09-09T00:16:27;14.60;99.90
54168;DHT22;40072;50.958;3.592;2022-09-09T00:19:07;14.60;99.90
54168;DHT22;40072;50.958;3.592;2022-09-09T00:21:46;14.60;99.90
54168;DHT22;40072;50.958;3.592;2022-09-09T00:24:26;14.50;99.90
54168;DHT22;40072;50.958;3.592;2022-09-09T00:26:59;14.50;99.90
54168;DHT22;40072;50.958;3.592;2022-09-09T00:29:33;14.50;99.90
54168;DHT22;40072;50.958;3.592;2022-09-09T00:32:12;14.50;99.90
54168;DHT22;40072;50.958;3.592;2022-09-09T00:34:50;14.40;99.90
54168;DHT22;40072;50.958;3.592;2022-09-09T00:37:19;14.40;99.90
54168;DHT22;40072;50.958;3.592;2022-09-09T00:39:47;14.40;99.90
54168;DHT22;40072;50.958;3.592;2022-09-09T00:42:18;14.40;99.90
54168;DHT22;40072;50.958;3.592;2022-09-09T00:45:05;14.50;99.90
54168;DHT22;40072;50.958;3.592;2022-09-09T00:47:49;14.50;99.90
54168;DHT22;40072;50.958;3.592;2022-09-09T00:56:29;14.60;99.90
54168;DHT22;40072;50.958;3.592;2022-09-09T00:59:45;14.70;99.90
54168;DHT22;40072;50.958;3.592;2022-09-09T01:05:12;14.60;99.90
54168;DHT22;40072;50.958;3.592;2022-09-09T01:07:40;14.60;99.90
54168;DHT22;40072;50.958;3.592;2022-09-09T01:10:31;14.60;99.90
54168;DHT22;40072;50.958;3.592;2022-09-09T01:13:05;14.60;99.90
54168;DHT22;40072;50.958;3.592;2022-09-09T01:15:38;14.60;99.90
54168;DHT22;40072;50.958;3.592;2022-09-09T01:18:15;14.50;99.90
54168;DHT22;40072;50.958;3.592;2022-09-09T01:26:21;14.50;99.90
54168;DHT22;40072;50.958;3.592;2022-09-09T01:28:50;14.50;99.90
54168;DHT22;40072;50.958;3.592;2022-09-09T01:31:28;14.50;99.90
54168;DHT22;40072;50.958;3.592;2022-09-09T01:33:55;14.50;99.90
54168;DHT22;40072;50.958;3.592;2022-09-09T01:39:09;14.50;99.90
54168;DHT22;40072;50.958;3.592;2022-09-09T01:41:35;14.50;99.90
54168;DHT22;40072;50.958;3.592;2022-09-09T01:44:02;14.50;99.90
54168;DHT22;40072;50.958;3.592;2022-09-09T01:46:28;14.60;99.90
54168;DHT22;40072;50.958;3.592;2022-09-09T01:48:56;14.50;99.90
54168;DHT22;40072;50.958;3.592;2022-09-09T01:51:22;14.50;99.90
54168;DHT22;40072;50.958;3.592;2022-09-09T01:53:48;14.60;99.90
54168;DHT22;40072;50.958;3.592;2022-09-09T01:59:26;14.50;99.90
54168;DHT22;40072;50.958;3.592;2022-09-09T02:02:13;14.50;99.90
54168;DHT22;40072;50.958;3.592;2022-09-09T02:04:44;14.60;99.90
54168;DHT22;40072;50.958;3.592;2022-09-09T02:07:24;14.60;99.90
54168;DHT22;40072;50.958;3.592;2022-09-09T02:09:58;14.60;99.90
54168;DHT22;40072;50.958;3.592;2022-09-09T02:12:28;14.60;99.90
54168;DHT22;40072;50.958;3.592;2022-09-09T02:15:01;14.70;99.90
54168;DHT22;40072;50.958;3.592;2022-09-09T02:17:33;14.70;99.90
54168;DHT22;40072;50.958;3.592;2022-09-09T02:20:12;14.80;99.90
54168;DHT22;40072;50.958;3.592;2022-09-09T02:22:42;14.80;99.90
54168;DHT22;40072;50.958;3.592;2022-09-09T02:25:10;14.80;99.90
54168;DHT22;40072;50.958;3.592;2022-09-09T02:27:39;14.90;99.90
54168;DHT22;40072;50.958;3.592;2022-09-09T02:30:06;14.90;99.90
54168;DHT22;40072;50.958;3.592;2022-09-09T02:32:35;14.90;99.90
54168;DHT22;40072;50.958;3.592;2022-09-09T02:35:09;15.00;99.90
54168;DHT22;40072;50.958;3.592;2022-09-09T02:37:39;15.00;99.90
54168;DHT22;40072;50.958;3.592;2022-09-09T02:40:07;14.90;99.90
54168;DHT22;40072;50.958;3.592;2022-09-09T02:42:40;14.90;99.90
54168;DHT22;40072;50.958;3.592;2022-09-09T02:45:08;14.90;99.90
54168;DHT22;40072;50.958;3.592;2022-09-09T02:47:35;14.90;99.90
54168;DHT22;40072;50.958;3.592;2022-09-09T02:50:12;14.90;99.90
54168;DHT22;40072;50.958;3.592;2022-09-09T02:55:39;14.90;99.90
54168;DHT22;40072;50.958;3.592;2022-09-09T02:58:10;15.00;99.90
54168;DHT22;40072;50.958;3.592;2022-09-09T03:00:39;15.00;99.90
54168;DHT22;40072;50.958;3.592;2022-09-09T03:03:06;15.00;99.90
54168;DHT22;40072;50.958;3.592;2022-09-09T03:05:32;14.90;99.90
54168;DHT22;40072;50.958;3.592;2022-09-09T03:07:58;14.90;99.90
54168;DHT22;40072;50.958;3.592;2022-09-09T03:10:23;14.90;99.90
54168;DHT22;40072;50.958;3.592;2022-09-09T03:12:49;14.90;99.90
54168;DHT22;40072;50.958;3.592;2022-09-09T03:15:16;14.90;99.90
54168;DHT22;40072;50.958;3.592;2022-09-09T03:17:42;14.90;99.90
54168;DHT22;40072;50.958;3.592;2022-09-09T03:20:08;14.90;99.90
54168;DHT22;40072;50.958;3.592;2022-09-09T03:22:34;14.90;99.90
54168;DHT22;40072;50.958;3.592;2022-09-09T03:25:00;14.90;99.90
54168;DHT22;40072;50.958;3.592;2022-09-09T03:27:28;14.90;99.90
54168;DHT22;40072;50.958;3.592;2022-09-09T03:29:54;14.90;99.90
54168;DHT22;40072;50.958;3.592;2022-09-09T03:32:19;15.00;99.90
54168;DHT22;40072;50.958;3.592;2022-09-09T03:34:48;15.00;99.90
54168;DHT22;40072;50.958;3.592;2022-09-09T03:37:16;15.00;99.90
54168;DHT22;40072;50.958;3.592;2022-09-09T03:39:43;15.00;99.90
54168;DHT22;40072;50.958;3.592;2022-09-09T03:42:09;15.00;99.90
54168;DHT22;40072;50.958;3.592;2022-09-09T03:44:36;15.00;99.90
54168;DHT22;40072;50.958;3.592;2022-09-09T03:47:01;15.00;99.90
54168;DHT22;40072;50.958;3.592;2022-09-09T03:49:27;15.00;99.90
54168;DHT22;40072;50.958;3.592;2022-09-09T03:51:57;15.00;99.90
54168;DHT22;40072;50.958;3.592;2022-09-09T03:54:25;15.00;99.90
54168;DHT22;40072;50.958;3.592;2022-09-09T03:56:51;14.90;99.90
54168;DHT22;40072;50.958;3.592;2022-09-09T03:59:17;14.90;99.90
54168;DHT22;40072;50.958;3.592;2022-09-09T04:01:42;15.00;99.90
54168;DHT22;40072;50.958;3.592;2022-09-09T04:04:09;15.00;99.90
54168;DHT22;40072;50.958;3.592;2022-09-09T04:06:36;15.00;99.90
54168;DHT22;40072;50.958;3.592;2022-09-09T04:09:01;15.00;99.90
54168;DHT22;40072;50.958;3.592;2022-09-09T04:11:29;15.00;99.90
54168;DHT22;40072;50.958;3.592;2022-09-09T04:13:54;15.00;99.90
54168;DHT22;40072;50.958;3.592;2022-09-09T04:16:20;15.00;99.90
54168;DHT22;40072;50.958;3.592;2022-09-09T04:18:46;15.00;99.90
54168;DHT22;40072;50.958;3.592;2022-09-09T04:21:12;15.00;99.90
54168;DHT22;40072;50.958;3.592;2022-09-09T04:23:38;15.00;99.90
54168;DHT22;40072;50.958;3.592;2022-09-09T04:26:05;15.00;99.90
54168;DHT22;40072;50.958;3.592;2022-09-09T04:28:33;15.00;99.90
54168;DHT22;40072;50.958;3.592;2022-09-09T04:31:07;15.10;99.90
54168;DHT22;40072;50.958;3.592;2022-09-09T04:33:34;15.10;99.90
54168;DHT22;40072;50.958;3.592;2022-09-09T04:36:00;15.00;99.90
54168;DHT22;40072;50.958;3.592;2022-09-09T04:38:26;15.00;99.90
54168;DHT22;40072;50.958;3.592;2022-09-09T04:40:52;15.00;99.90
54168;DHT22;40072;50.958;3.592;2022-09-09T04:43:19;15.00;99.90
54168;DHT22;40072;50.958;3.592;2022-09-09T04:45:49;15.00;99.90
54168;DHT22;40072;50.958;3.592;2022-09-09T04:48:16;15.00;99.90
54168;DHT22;40072;50.958;3.592;2022-09-09T04:50:42;15.00;99.90
54168;DHT22;40072;50.958;3.592;2022-09-09T04:53:08;15.00;99.90
54168;DHT22;40072;50.958;3.592;2022-09-09T04:55:34;15.00;99.90
54168;DHT22;40072;50.958;3.592;2022-09-09T04:58:07;15.00;99.90
54168;DHT22;40072;50.958;3.592;2022-09-09T05:00:37;15.00;99.90
54168;DHT22;40072;50.958;3.592;2022-09-09T05:03:06;15.00;99.90
54168;DHT22;40072;50.958;3.592;2022-09-09T05:05:33;15.10;99.90
54168;DHT22;40072;50.958;3.592;2022-09-09T05:08:06;15.10;99.90
54168;DHT22;40072;50.958;3.592;2022-09-09T05:10:33;15.10;99.90
54168;DHT22;40072;50.958;3.592;2022-09-09T05:12:59;15.10;99.90
54168;DHT22;40072;50.958;3.592;2022-09-09T05:15:24;15.10;99.90
54168;DHT22;40072;50.958;3.592;2022-09-09T05:17:50;15.10;99.90
54168;DHT22;40072;50.958;3.592;2022-09-09T05:20:17;15.10;99.90
54168;DHT22;40072;50.958;3.592;2022-09-09T05:22:43;15.10;99.90
54168;DHT22;40072;50.958;3.592;2022-09-09T05:25:09;15.10;99.90
54168;DHT22;40072;50.958;3.592;2022-09-09T05:27:35;15.10;99.90
54168;DHT22;40072;50.958;3.592;2022-09-09T05:30:00;15.10;99.90
54168;DHT22;40072;50.958;3.592;2022-09-09T05:32:26;15.10;99.90
54168;DHT22;40072;50.958;3.592;2022-09-09T05:34:53;15.10;99.90
54168;DHT22;40072;50.958;3.592;2022-09-09T05:37:19;15.10;99.90
54168;DHT22;40072;50.958;3.592;2022-09-09T05:39:44;15.10;99.90
54168;DHT22;40072;50.958;3.592;2022-09-09T05:42:10;15.20;99.90
54168;DHT22;40072;50.958;3.592;2022-09-09T05:44:36;15.20;99.90
54168;DHT22;40072;50.958;3.592;2022-09-09T05:47:02;15.20;99.90
54168;DHT22;40072;50.958;3.592;2022-09-09T05:49:28;15.20;99.90
54168;DHT22;40072;50.958;3.592;2022-09-09T05:51:53;15.20;99.90
54168;DHT22;40072;50.958;3.592;2022-09-09T05:54:19;15.20;99.90
54168;DHT22;40072;50.958;3.592;2022-09-09T05:56:45;15.10;99.90
54168;DHT22;40072;50.958;3.592;2022-09-09T05:59:10;15.10;99.90
54168;DHT22;40072;50.958;3.592;2022-09-09T06:01:38;14.90;99.90
54168;DHT22;40072;50.958;3.592;2022-09-09T06:04:06;14.80;99.90
54168;DHT22;40072;50.958;3.592;2022-09-09T06:06:35;14.80;99.90
54168;DHT22;40072;50.958;3.592;2022-09-09T06:09:03;14.70;99.90
54168;DHT22;40072;50.958;3.592;2022-09-09T06:11:32;14.70;99.90
54168;DHT22;40072;50.958;3.592;2022-09-09T06:13:58;14.70;99.90
54168;DHT22;40072;50.958;3.592;2022-09-09T06:16:26;14.60;99.90
54168;DHT22;40072;50.958;3.592;2022-09-09T06:18:56;14.60;99.90
54168;DHT22;40072;50.958;3.592;2022-09-09T06:21:31;14.70;99.90
54168;DHT22;40072;50.958;3.592;2022-09-09T06:23:58;14.70;99.90
54168;DHT22;40072;50.958;3.592;2022-09-09T06:26:30;14.80;99.90
54168;DHT22;40072;50.958;3.592;2022-09-09T06:28:56;14.80;99.90
54168;DHT22;40072;50.958;3.592;2022-09-09T06:31:27;14.90;99.90
54168;DHT22;40072;50.958;3.592;2022-09-09T06:33:56;14.90;99.90
54168;DHT22;40072;50.958;3.592;2022-09-09T06:36:27;15.00;99.90
54168;DHT22;40072;50.958;3.592;2022-09-09T06:38:54;15.00;99.90
54168;DHT22;40072;50.958;3.592;2022-09-09T06:41:21;15.00;99.90
54168;DHT22;40072;50.958;3.592;2022-09-09T06:43:48;15.10;99.90
54168;DHT22;40072;50.958;3.592;2022-09-09T06:46:18;15.10;99.90
54168;DHT22;40072;50.958;3.592;2022-09-09T06:48:44;15.10;99.90
54168;DHT22;40072;50.958;3.592;2022-09-09T06:51:13;15.10;99.90
54168;DHT22;40072;50.958;3.592;2022-09-09T06:53:40;15.20;99.90
54168;DHT22;40072;50.958;3.592;2022-09-09T06:56:28;15.20;99.90
54168;DHT22;40072;50.958;3.592;2022-09-09T06:58:56;15.30;99.90
54168;DHT22;40072;50.958;3.592;2022-09-09T07:01:28;15.30;99.90
54168;DHT22;40072;50.958;3.592;2022-09-09T07:03:56;15.40;99.90
54168;DHT22;40072;50.958;3.592;2022-09-09T07:06:25;15.30;99.90
54168;DHT22;40072;50.958;3.592;2022-09-09T07:08:52;15.30;99.90
54168;DHT22;40072;50.958;3.592;2022-09-09T07:11:19;15.40;99.90
54168;DHT22;40072;50.958;3.592;2022-09-09T07:13:45;15.40;99.90
54168;DHT22;40072;50.958;3.592;2022-09-09T07:16:14;15.40;99.90
54168;DHT22;40072;50.958;3.592;2022-09-09T07:18:41;15.50;99.90
54168;DHT22;40072;50.958;3.592;2022-09-09T07:21:09;15.50;99.90
54168;DHT22;40072;50.958;3.592;2022-09-09T07:23:35;15.60;99.90
54168;DHT22;40072;50.958;3.592;2022-09-09T07:26:02;15.60;99.90
54168;DHT22;40072;50.958;3.592;2022-09-09T07:28:28;15.60;99.90
54168;DHT22;40072;50.958;3.592;2022-09-09T07:30:57;15.70;99.90
54168;DHT22;40072;50.958;3.592;2022-09-09T07:33:24;15.70;99.90
54168;DHT22;40072;50.958;3.592;2022-09-09T07:35:50;15.70;99.90
54168;DHT22;40072;50.958;3.592;2022-09-09T07:38:16;15.60;99.90
54168;DHT22;40072;50.958;3.592;2022-09-09T07:40:43;15.60;99.90
54168;DHT22;40072;50.958;3.592;2022-09-09T07:43:09;15.50;99.90
54168;DHT22;40072;50.958;3.592;2022-09-09T07:45:34;15.40;99.90
54168;DHT22;40072;50.958;3.592;2022-09-09T07:48:01;15.30;99.90
54168;DHT22;40072;50.958;3.592;2022-09-09T07:50:28;15.30;99.90
54168;DHT22;40072;50.958;3.592;2022-09-09T07:52:53;15.30;99.90
54168;DHT22;40072;50.958;3.592;2022-09-09T07:55:20;15.20;99.90
54168;DHT22;40072;50.958;3.592;2022-09-09T07:57:46;15.10;99.90
54168;DHT22;40072;50.958;3.592;2022-09-09T08:00:12;15.10;99.90
54168;DHT22;40072;50.958;3.592;2022-09-09T08:02:40;15.10;99.90
54168;DHT22;40072;50.958;3.592;2022-09-09T08:05:06;15.10;99.90
54168;DHT22;40072;50.958;3.592;2022-09-09T08:07:32;15.10;99.90
54168;DHT22;40072;50.958;3.592;2022-09-09T08:09:57;15.10;99.90
54168;DHT22;40072;50.958;3.592;2022-09-09T08:12:23;15.20;99.90
54168;DHT22;40072;50.958;3.592;2022-09-09T08:14:49;15.20;99.90
54168;DHT22;40072;50.958;3.592;2022-09-09T08:17:16;15.20;99.90
54168;DHT22;40072;50.958;3.592;2022-09-09T08:19:42;15.30;99.90
54168;DHT22;40072;50.958;3.592;2022-09-09T08:22:10;15.30;99.90
54168;DHT22;40072;50.958;3.592;2022-09-09T08:24:35;15.30;99.90
54168;DHT22;40072;50.958;3.592;2022-09-09T08:27:01;15.30;99.90
54168;DHT22;40072;50.958;3.592;2022-09-09T08:29:27;15.40;99.90
54168;DHT22;40072;50.958;3.592;2022-09-09T08:31:56;15.40;99.90
54168;DHT22;40072;50.958;3.592;2022-09-09T08:34:23;15.40;99.90
54168;DHT22;40072;50.958;3.592;2022-09-09T08:36:50;15.50;99.90
54168;DHT22;40072;50.958;3.592;2022-09-09T08:39:18;15.50;99.90
54168;DHT22;40072;50.958;3.592;2022-09-09T08:58:19;15.60;99.90
54168;DHT22;40072;50.958;3.592;2022-09-09T09:01:10;15.60;99.90
54168;DHT22;40072;50.958;3.592;2022-09-09T09:11:53;16.00;99.90
54168;DHT22;40072;50.958;3.592;2022-09-09T09:14:23;15.90;99.90
54168;DHT22;40072;50.958;3.592;2022-09-09T09:17:10;16.00;99.90
54168;DHT22;40072;50.958;3.592;2022-09-09T09:19:40;16.30;99.90
54168;DHT22;40072;50.958;3.592;2022-09-09T09:25:02;16.50;99.90
54168;DHT22;40072;50.958;3.592;2022-09-09T09:27:39;16.60;99.90
54168;DHT22;40072;50.958;3.592;2022-09-09T09:30:15;16.70;99.90
54168;DHT22;40072;50.958;3.592;2022-09-09T09:32:55;16.60;99.90
54168;DHT22;40072;50.958;3.592;2022-09-09T09:35:21;16.50;99.90
54168;DHT22;40072;50.958;3.592;2022-09-09T09:37:48;16.60;99.90
54168;DHT22;40072;50.958;3.592;2022-09-09T09:40:16;16.50;99.90
54168;DHT22;40072;50.958;3.592;2022-09-09T09:45:35;16.40;99.90
54168;DHT22;40072;50.958;3.592;2022-09-09T09:48:10;16.40;99.90
54168;DHT22;40072;50.958;3.592;2022-09-09T09:56:03;16.50;99.90
54168;DHT22;40072;50.958;3.592;2022-09-09T09:58:32;16.60;99.90
54168;DHT22;40072;50.958;3.592;2022-09-09T10:01:00;16.60;99.90
54168;DHT22;40072;50.958;3.592;2022-09-09T10:03:27;16.50;99.90
54168;DHT22;40072;50.958;3.592;2022-09-09T10:05:54;16.50;99.90
54168;DHT22;40072;50.958;3.592;2022-09-09T10:08:23;16.60;99.90
54168;DHT22;40072;50.958;3.592;2022-09-09T10:11:22;16.70;99.90
54168;DHT22;40072;50.958;3.592;2022-09-09T10:14:20;16.70;99.90
54168;DHT22;40072;50.958;3.592;2022-09-09T10:19:37;16.80;99.90
54168;DHT22;40072;50.958;3.592;2022-09-09T10:22:32;16.70;99.90
54168;DHT22;40072;50.958;3.592;2022-09-09T10:25:17;16.90;99.90
54168;DHT22;40072;50.958;3.592;2022-09-09T10:27:53;16.90;99.90
54168;DHT22;40072;50.958;3.592;2022-09-09T10:30:34;16.80;99.90
54168;DHT22;40072;50.958;3.592;2022-09-09T10:33:13;16.90;99.90
54168;DHT22;40072;50.958;3.592;2022-09-09T10:41:39;17.20;99.90
54168;DHT22;40072;50.958;3.592;2022-09-09T10:45:10;17.30;99.90
54168;DHT22;40072;50.958;3.592;2022-09-09T10:53:24;17.20;99.90
54168;DHT22;40072;50.958;3.592;2022-09-09T10:56:08;17.10;99.90
54168;DHT22;40072;50.958;3.592;2022-09-09T10:58:42;17.20;99.90
54168;DHT22;40072;50.958;3.592;2022-09-09T11:01:28;17.40;99.90
54168;DHT22;40072;50.958;3.592;2022-09-09T11:04:22;18.10;99.90
54168;DHT22;40072;50.958;3.592;2022-09-09T11:06:54;18.50;99.90
54168;DHT22;40072;50.958;3.592;2022-09-09T11:09:24;19.20;99.90
54168;DHT22;40072;50.958;3.592;2022-09-09T11:11:55;18.90;99.90
54168;DHT22;40072;50.958;3.592;2022-09-09T11:14:29;19.00;99.90
54168;DHT22;40072;50.958;3.592;2022-09-09T11:17:03;18.70;99.90
54168;DHT22;40072;50.958;3.592;2022-09-09T11:19:40;19.00;99.90
54168;DHT22;40072;50.958;3.592;2022-09-09T11:41:51;19.50;99.90
54168;DHT22;40072;50.958;3.592;2022-09-09T11:44:19;19.30;99.90
54168;DHT22;40072;50.958;3.592;2022-09-09T11:46:51;19.30;99.90
54168;DHT22;40072;50.958;3.592;2022-09-09T11:51:52;20.90;99.90
54168;DHT22;40072;50.958;3.592;2022-09-09T11:54:32;20.40;99.90
54168;DHT22;40072;50.958;3.592;2022-09-09T11:56:58;20.40;99.90
54168;DHT22;40072;50.958;3.592;2022-09-09T11:59:29;20.60;99.90
54168;DHT22;40072;50.958;3.592;2022-09-09T12:02:18;20.50;99.90
54168;DHT22;40072;50.958;3.592;2022-09-09T12:05:07;20.00;99.90
54168;DHT22;40072;50.958;3.592;2022-09-09T12:07:41;20.00;99.90
54168;DHT22;40072;50.958;3.592;2022-09-09T12:12:35;20.50;99.90
54168;DHT22;40072;50.958;3.592;2022-09-09T12:17:53;22.10;99.90
54168;DHT22;40072;50.958;3.592;2022-09-09T12:20:35;21.30;99.90
54168;DHT22;40072;50.958;3.592;2022-09-09T12:23:12;20.90;99.90
54168;DHT22;40072;50.958;3.592;2022-09-09T12:28:47;19.50;99.90
54168;DHT22;40072;50.958;3.592;2022-09-09T12:33:51;19.70;99.90
54168;DHT22;40072;50.958;3.592;2022-09-09T12:36:28;19.80;99.90
54168;DHT22;40072;50.958;3.592;2022-09-09T12:38:57;19.60;99.90
54168;DHT22;40072;50.958;3.592;2022-09-09T12:41:27;19.40;99.90
54168;DHT22;40072;50.958;3.592;2022-09-09T12:44:08;19.10;99.90
54168;DHT22;40072;50.958;3.592;2022-09-09T12:46:39;19.20;99.90
54168;DHT22;40072;50.958;3.592;2022-09-09T12:49:26;19.30;99.90
54168;DHT22;40072;50.958;3.592;2022-09-09T12:51:54;19.20;99.90
54168;DHT22;40072;50.958;3.592;2022-09-09T12:54:22;19.80;99.90
54168;DHT22;40072;50.958;3.592;2022-09-09T12:56:49;20.00;99.90
54168;DHT22;40072;50.958;3.592;2022-09-09T12:59:35;19.80;99.90
54168;DHT22;40072;50.958;3.592;2022-09-09T13:02:01;20.00;99.90
54168;DHT22;40072;50.958;3.592;2022-09-09T13:04:27;20.00;99.90
54168;DHT22;40072;50.958;3.592;2022-09-09T13:06:52;20.10;99.90
54168;DHT22;40072;50.958;3.592;2022-09-09T13:09:19;20.00;99.90
54168;DHT22;40072;50.958;3.592;2022-09-09T13:11:54;19.70;99.90
54168;DHT22;40072;50.958;3.592;2022-09-09T13:14:35;19.70;99.90
54168;DHT22;40072;50.958;3.592;2022-09-09T13:17:04;19.90;99.90
54168;DHT22;40072;50.958;3.592;2022-09-09T13:19:37;20.10;99.90
54168;DHT22;40072;50.958;3.592;2022-09-09T13:22:36;20.20;99.90
54168;DHT22;40072;50.958;3.592;2022-09-09T13:25:06;20.20;99.90
54168;DHT22;40072;50.958;3.592;2022-09-09T13:27:58;20.10;99.90
54168;DHT22;40072;50.958;3.592;2022-09-09T13:35:55;19.70;99.90
54168;DHT22;40072;50.958;3.592;2022-09-09T13:38:22;19.10;99.90
54168;DHT22;40072;50.958;3.592;2022-09-09T13:41:05;18.60;99.90
54168;DHT22;40072;50.958;3.592;2022-09-09T13:43:36;18.40;99.90
54168;DHT22;40072;50.958;3.592;2022-09-09T13:46:05;18.40;99.90
54168;DHT22;40072;50.958;3.592;2022-09-09T13:48:31;18.50;99.90
54168;DHT22;40072;50.958;3.592;2022-09-09T13:51:04;18.70;99.90
54168;DHT22;40072;50.958;3.592;2022-09-09T13:53:31;18.90;99.90
54168;DHT22;40072;50.958;3.592;2022-09-09T13:55:57;19.00;99.90
54168;DHT22;40072;50.958;3.592;2022-09-09T13:58:24;18.90;99.90
54168;DHT22;40072;50.958;3.592;2022-09-09T14:00:52;19.00;99.90
54168;DHT22;40072;50.958;3.592;2022-09-09T14:03:18;18.90;99.90
54168;DHT22;40072;50.958;3.592;2022-09-09T14:05:44;18.80;99.90
54168;DHT22;40072;50.958;3.592;2022-09-09T14:08:16;18.70;99.90
54168;DHT22;40072;50.958;3.592;2022-09-09T14:10:46;18.60;99.90
54168;DHT22;40072;50.958;3.592;2022-09-09T14:13:12;18.30;99.90
54168;DHT22;40072;50.958;3.592;2022-09-09T14:15:38;18.00;99.90
54168;DHT22;40072;50.958;3.592;2022-09-09T14:18:04;17.90;99.90
54168;DHT22;40072;50.958;3.592;2022-09-09T14:20:29;17.80;99.90
54168;DHT22;40072;50.958;3.592;2022-09-09T14:22:55;17.70;99.90
54168;DHT22;40072;50.958;3.592;2022-09-09T14:25:23;17.90;99.90
54168;DHT22;40072;50.958;3.592;2022-09-09T14:27:48;18.10;99.90
54168;DHT22;40072;50.958;3.592;2022-09-09T14:30:16;18.20;99.90
54168;DHT22;40072;50.958;3.592;2022-09-09T14:32:42;18.50;99.90
54168;DHT22;40072;50.958;3.592;2022-09-09T14:35:08;18.60;99.90
54168;DHT22;40072;50.958;3.592;2022-09-09T14:37:33;18.90;99.90
54168;DHT22;40072;50.958;3.592;2022-09-09T14:39:59;19.20;99.90
54168;DHT22;40072;50.958;3.592;2022-09-09T14:42:25;19.30;99.90
54168;DHT22;40072;50.958;3.592;2022-09-09T14:44:52;19.30;99.90
54168;DHT22;40072;50.958;3.592;2022-09-09T14:47:17;19.30;99.90
54168;DHT22;40072;50.958;3.592;2022-09-09T14:49:43;19.60;99.90
54168;DHT22;40072;50.958;3.592;2022-09-09T14:52:09;19.70;99.90
54168;DHT22;40072;50.958;3.592;2022-09-09T14:54:35;19.70;99.90
54168;DHT22;40072;50.958;3.592;2022-09-09T14:57:01;19.90;99.90
54168;DHT22;40072;50.958;3.592;2022-09-09T14:59:27;19.90;99.90
54168;DHT22;40072;50.958;3.592;2022-09-09T15:01:53;20.00;99.90
54168;DHT22;40072;50.958;3.592;2022-09-09T15:04:18;19.90;99.90
54168;DHT22;40072;50.958;3.592;2022-09-09T15:06:45;19.90;99.90
54168;DHT22;40072;50.958;3.592;2022-09-09T15:09:14;20.00;99.90
54168;DHT22;40072;50.958;3.592;2022-09-09T15:11:40;20.20;99.90
54168;DHT22;40072;50.958;3.592;2022-09-09T15:14:07;20.40;99.90
54168;DHT22;40072;50.958;3.592;2022-09-09T15:16:33;20.50;99.90
54168;DHT22;40072;50.958;3.592;2022-09-09T15:19:00;20.30;99.90
54168;DHT22;40072;50.958;3.592;2022-09-09T15:21:28;20.10;99.90
54168;DHT22;40072;50.958;3.592;2022-09-09T15:23:55;19.70;99.90
54168;DHT22;40072;50.958;3.592;2022-09-09T15:26:21;19.40;99.90
54168;DHT22;40072;50.958;3.592;2022-09-09T15:28:47;19.00;99.90
54168;DHT22;40072;50.958;3.592;2022-09-09T15:36:20;18.70;99.90
54168;DHT22;40072;50.958;3.592;2022-09-09T15:38:47;18.70;99.90
54168;DHT22;40072;50.958;3.592;2022-09-09T15:41:13;18.50;99.90
54168;DHT22;40072;50.958;3.592;2022-09-09T15:43:43;18.10;99.90
54168;DHT22;40072;50.958;3.592;2022-09-09T15:48:51;17.60;99.90
54168;DHT22;40072;50.958;3.592;2022-09-09T15:51:17;17.90;99.90
54168;DHT22;40072;50.958;3.592;2022-09-09T15:53:44;18.50;99.90
54168;DHT22;40072;50.958;3.592;2022-09-09T15:56:10;19.00;99.90
54168;DHT22;40072;50.958;3.592;2022-09-09T15:58:36;19.50;99.90
54168;DHT22;40072;50.958;3.592;2022-09-09T16:01:07;19.50;99.90
54168;DHT22;40072;50.958;3.592;2022-09-09T16:03:34;19.20;99.90
54168;DHT22;40072;50.958;3.592;2022-09-09T16:06:00;19.10;99.90
54168;DHT22;40072;50.958;3.592;2022-09-09T16:08:32;19.00;99.90
54168;DHT22;40072;50.958;3.592;2022-09-09T16:11:08;19.20;99.90
54168;DHT22;40072;50.958;3.592;2022-09-09T16:13:35;19.10;99.90
54168;DHT22;40072;50.958;3.592;2022-09-09T16:16:03;19.20;99.90
54168;DHT22;40072;50.958;3.592;2022-09-09T16:18:37;19.10;99.90
54168;DHT22;40072;50.958;3.592;2022-09-09T16:21:04;18.90;99.90
54168;DHT22;40072;50.958;3.592;2022-09-09T16:23:34;18.70;99.90
54168;DHT22;40072;50.958;3.592;2022-09-09T16:26:00;18.60;99.90
54168;DHT22;40072;50.958;3.592;2022-09-09T16:28:26;18.40;99.90
54168;DHT22;40072;50.958;3.592;2022-09-09T16:30:52;18.30;99.90
54168;DHT22;40072;50.958;3.592;2022-09-09T16:33:18;18.00;99.90
54168;DHT22;40072;50.958;3.592;2022-09-09T16:35:45;17.70;99.90
54168;DHT22;40072;50.958;3.592;2022-09-09T16:38:11;17.50;99.90
54168;DHT22;40072;50.958;3.592;2022-09-09T16:40:37;17.40;99.90
54168;DHT22;40072;50.958;3.592;2022-09-09T16:43:07;17.30;99.90
54168;DHT22;40072;50.958;3.592;2022-09-09T16:45:32;17.30;99.90
54168;DHT22;40072;50.958;3.592;2022-09-09T16:47:59;17.30;99.90
54168;DHT22;40072;50.958;3.592;2022-09-09T16:50:26;17.30;99.90
54168;DHT22;40072;50.958;3.592;2022-09-09T16:52:52;17.30;99.90
54168;DHT22;40072;50.958;3.592;2022-09-09T16:55:18;17.30;99.90
54168;DHT22;40072;50.958;3.592;2022-09-09T16:57:46;17.20;99.90
54168;DHT22;40072;50.958;3.592;2022-09-09T17:00:14;17.20;99.90
54168;DHT22;40072;50.958;3.592;2022-09-09T17:02:42;17.20;99.90
54168;DHT22;40072;50.958;3.592;2022-09-09T17:05:08;17.20;99.90
54168;DHT22;40072;50.958;3.592;2022-09-09T17:07:34;17.20;99.90
54168;DHT22;40072;50.958;3.592;2022-09-09T17:10:01;17.20;99.90
54168;DHT22;40072;50.958;3.592;2022-09-09T17:12:27;17.20;99.90
54168;DHT22;40072;50.958;3.592;2022-09-09T17:14:52;17.20;99.90
54168;DHT22;40072;50.958;3.592;2022-09-09T17:17:20;17.20;99.90
54168;DHT22;40072;50.958;3.592;2022-09-09T17:19:46;17.20;99.90
54168;DHT22;40072;50.958;3.592;2022-09-09T17:22:12;17.30;99.90
54168;DHT22;40072;50.958;3.592;2022-09-09T17:24:38;17.30;99.90
54168;DHT22;40072;50.958;3.592;2022-09-09T17:27:05;17.30;99.90
54168;DHT22;40072;50.958;3.592;2022-09-09T17:29:31;17.30;99.90
54168;DHT22;40072;50.958;3.592;2022-09-09T17:31:57;17.30;99.90
54168;DHT22;40072;50.958;3.592;2022-09-09T17:34:23;17.30;99.90
54168;DHT22;40072;50.958;3.592;2022-09-09T17:36:50;17.30;99.90
54168;DHT22;40072;50.958;3.592;2022-09-09T17:39:17;17.20;99.90
54168;DHT22;40072;50.958;3.592;2022-09-09T17:41:42;17.20;99.90
54168;DHT22;40072;50.958;3.592;2022-09-09T17:44:08;17.20;99.90
54168;DHT22;40072;50.958;3.592;2022-09-09T17:46:36;17.10;99.90